Terminal Aerodrome Forecast
Issued by NWS Jacksonville, FL

Current Version | Previous Version | Text Only | Print | Product List | Glossary On
Versions: 1 2 3 4 5 6 7 8 9 10 11 12 13 14 15 16 17 18 19 20 21 22 23 24 25 26 27 28 29 30 31 32
000
FTUS42 KJAX 221500 AAA
TAFSSI
TAF AMD
KSSI 221508Z 2215/2312 VRB06KT P6SM SCT025
     FM221900 11008KT P6SM VCTS BKN035CB
     FM230000 VRB04KT P6SM VCSH SCT040 BKN250=

USA.gov is the U.S. government's official web portal to all federal, state and local government web resources and services.